createdAt,value
2022-08-23T00:02:43.436Z,100579.84
2022-08-23T00:05:28.901Z,100581.63
2022-08-23T00:08:14.261Z,100580.66
2022-08-23T00:11:00.896Z,100582.16
2022-08-23T00:13:47.854Z,100579.56
2022-08-23T00:16:33.541Z,100580.50
2022-08-23T00:19:20.430Z,100581.41
2022-08-23T00:22:07.145Z,100583.84
2022-08-23T00:24:52.819Z,100574.31
2022-08-23T00:27:38.629Z,100565.59
2022-08-23T00:30:24.537Z,100577.00
2022-08-23T00:33:10.683Z,100583.16
2022-08-23T00:35:56.364Z,100574.31
2022-08-23T00:38:42.255Z,100578.78
2022-08-23T00:41:29.512Z,100577.91
2022-08-23T00:44:46.431Z,100581.31
2022-08-23T00:47:40.955Z,100578.78
2022-08-23T00:50:26.622Z,100587.50
2022-08-23T00:53:20.460Z,100581.31
2022-08-23T00:56:09.155Z,100580.34
2022-08-23T00:58:54.440Z,100581.09
2022-08-23T01:01:44.167Z,100569.81
2022-08-23T01:04:34.473Z,100567.34
2022-08-23T01:07:32.703Z,100563.97
2022-08-23T01:10:33.327Z,100564.91
2022-08-23T01:13:30.358Z,100572.03
2022-08-23T01:16:26.289Z,100560.59
2022-08-23T01:19:48.708Z,100558.84
2022-08-23T01:22:57.593Z,100557.16
2022-08-23T01:25:44.643Z,100554.69
2022-08-23T01:28:29.884Z,100553.13
2022-08-23T01:31:16.675Z,100560.31
2022-08-23T01:34:07.158Z,100567.03
2022-08-23T01:36:54.328Z,100554.16
2022-08-23T01:39:40.150Z,100558.09
2022-08-23T01:42:26.111Z,100554.97
2022-08-23T01:45:14.436Z,100556.00
2022-08-23T01:48:01.031Z,100555.06
2022-08-23T01:50:47.669Z,100563.84
2022-08-23T01:53:34.375Z,100576.44
2022-08-23T01:56:38.300Z,100574.38
2022-08-23T01:59:26.844Z,100574.41
2022-08-23T02:02:13.403Z,100586.69
2022-08-23T02:04:59.098Z,100597.84
2022-08-23T02:07:46.802Z,100598.22
2022-08-23T02:10:32.594Z,100591.63
2022-08-23T02:13:18.261Z,100590.34
2022-08-23T02:16:05.051Z,100584.78
2022-08-23T02:18:51.952Z,100583.75
2022-08-23T02:21:38.361Z,100596.47
2022-08-23T02:24:25.481Z,100604.94
2022-08-23T02:27:12.281Z,100600.25
2022-08-23T02:29:59.361Z,100595.63
2022-08-23T02:32:45.709Z,100601.59
2022-08-23T02:35:33.797Z,100596.22
2022-08-23T02:38:19.173Z,100586.50
2022-08-23T02:41:05.249Z,100572.38
2022-08-23T02:43:53.315Z,100583.75
2022-08-23T02:46:41.753Z,100581.97
2022-08-23T02:49:28.873Z,100580.13
2022-08-23T02:52:14.297Z,100577.59
2022-08-23T02:55:01.599Z,100585.66
2022-08-23T02:57:47.564Z,100590.38
2022-08-23T03:00:33.213Z,100590.56
2022-08-23T03:03:20.318Z,100588.19
2022-08-23T03:06:24.742Z,100587.53
2022-08-23T03:09:11.874Z,100598.25
2022-08-23T03:11:57.297Z,100589.75
2022-08-23T03:14:43.008Z,100583.75
2022-08-23T03:17:29.530Z,100597.81
2022-08-23T03:20:15.494Z,100598.66
2022-08-23T03:23:01.247Z,100603.84
2022-08-23T03:25:47.149Z,100607.16
2022-08-23T03:28:44.691Z,100604.38
2022-08-23T03:31:32.483Z,100598.13
2022-08-23T03:34:24.579Z,100590.09
2022-08-23T03:37:10.885Z,100591.88
2022-08-23T03:39:56.585Z,100600.66
2022-08-23T03:42:42.462Z,100594.47
2022-08-23T03:45:31.244Z,100592.75
2022-08-23T03:48:17.729Z,100590.06
2022-08-23T03:51:04.107Z,100595.31
2022-08-23T03:53:50.200Z,100593.59
2022-08-23T03:56:49.818Z,100594.63
2022-08-23T03:59:37.956Z,100581.63
2022-08-23T04:02:27.471Z,100581.06
2022-08-23T04:05:13.463Z,100578.63
2022-08-23T04:08:33.282Z,100584.28
2022-08-23T04:11:21.026Z,100590.59
2022-08-23T04:14:15.284Z,100594.31
2022-08-23T04:17:00.510Z,100595.16
2022-08-23T04:19:45.737Z,100600.34
2022-08-23T04:22:31.191Z,100602.94
2022-08-23T04:25:33.111Z,100597.50
2022-08-23T04:28:22.607Z,100613.31
2022-08-23T04:31:08.616Z,100604.53
2022-08-23T04:33:56.776Z,100605.34
2022-08-23T04:36:51.776Z,100599.16
2022-08-23T04:40:00.200Z,100593.97
2022-08-23T04:42:52.908Z,100599.41
2022-08-23T04:45:39.956Z,100594.34
2022-08-23T04:48:29.941Z,100595.34
2022-08-23T04:51:16.056Z,100599.91
2022-08-23T04:54:02.036Z,100597.59
2022-08-23T04:57:09.624Z,100606.56
2022-08-23T04:59:57.673Z,100604.16
2022-08-23T05:02:43.958Z,100602.56
2022-08-23T05:05:29.261Z,100605.53
2022-08-23T05:08:14.560Z,100618.16
2022-08-23T05:11:05.607Z,100618.22
2022-08-23T05:13:51.371Z,100618.41
2022-08-23T05:16:38.461Z,100623.69
2022-08-23T05:19:28.149Z,100620.22
2022-08-23T05:22:13.474Z,100630.06
2022-08-23T05:25:49.612Z,100637.25
2022-08-23T05:28:48.051Z,100643.34
2022-08-23T05:31:35.727Z,100647.81
2022-08-23T05:34:22.507Z,100643.41
2022-08-23T05:37:17.291Z,100656.44
2022-08-23T05:40:04.002Z,100659.88
2022-08-23T05:42:55.936Z,100658.09
2022-08-23T05:45:41.281Z,100654.63
2022-08-23T05:48:29.329Z,100659.72
2022-08-23T05:51:20.228Z,100669.16
2022-08-23T05:54:07.820Z,100671.69
2022-08-23T05:56:54.359Z,100673.34
2022-08-23T05:59:42.115Z,100673.09
2022-08-23T06:02:27.556Z,100673.78
2022-08-23T06:05:13.994Z,100676.25
2022-08-23T06:08:01.328Z,100673.41
2022-08-23T06:10:47.041Z,100672.25
2022-08-23T06:13:45.817Z,100672.78
2022-08-23T06:16:35.004Z,100665.56
2022-08-23T06:19:21.851Z,100663.56
2022-08-23T06:22:25.041Z,100673.88
2022-08-23T06:25:10.900Z,100677.25
2022-08-23T06:28:03.697Z,100676.22
2022-08-23T06:30:50.067Z,100671.72
2022-08-23T06:33:44.314Z,100681.19
2022-08-23T06:37:07.340Z,100679.31
2022-08-23T06:40:18.232Z,100686.13
2022-08-23T06:43:14.152Z,100695.63
2022-08-23T06:46:14.431Z,100692.78
2022-08-23T06:49:05.558Z,100693.50
2022-08-23T06:51:54.002Z,100689.81
2022-08-23T06:54:49.016Z,100698.38
2022-08-23T06:57:55.402Z,100688.56
2022-08-23T07:01:28.614Z,100687.50
2022-08-23T07:04:25.182Z,100687.38
2022-08-23T07:07:44.660Z,100690.78
2022-08-23T07:10:34.378Z,100684.47
2022-08-23T07:13:20.002Z,100692.22
2022-08-23T07:16:05.835Z,100698.50
2022-08-23T07:18:53.073Z,100699.41
2022-08-23T07:21:39.061Z,100700.34
2022-08-23T07:24:29.348Z,100698.53
2022-08-23T07:27:18.032Z,100707.94
2022-08-23T07:30:12.769Z,100711.13
2022-08-23T07:32:59.086Z,100712.44
2022-08-23T07:35:51.630Z,100717.13
2022-08-23T07:38:39.685Z,100727.22
2022-08-23T07:41:32.873Z,100719.22
2022-08-23T07:44:23.510Z,100720.09
2022-08-23T07:47:14.524Z,100725.25
2022-08-23T07:50:00.182Z,100736.94
2022-08-23T07:52:47.244Z,100732.81
2022-08-23T07:55:33.636Z,100736.44
2022-08-23T07:58:40.306Z,100735.84
2022-08-23T08:01:46.571Z,100739.25
2022-08-23T08:04:32.396Z,100734.78
2022-08-23T08:07:20.421Z,100745.16
2022-08-23T08:10:14.001Z,100754.88
2022-08-23T08:12:59.441Z,100754.88
2022-08-23T08:15:44.826Z,100751.44
2022-08-23T08:18:36.107Z,100748.69
2022-08-23T08:21:42.034Z,100754.22
2022-08-23T08:24:40.456Z,100767.50
2022-08-23T08:27:29.931Z,100762.25
2022-08-23T08:30:19.101Z,100762.28
2022-08-23T08:33:06.786Z,100766.66
2022-08-23T08:35:59.328Z,100770.94
2022-08-23T08:38:47.992Z,100773.34
2022-08-23T08:42:17.834Z,100768.03
2022-08-23T08:45:19.507Z,100767.06
2022-08-23T08:48:13.482Z,100772.09
2022-08-23T08:51:17.385Z,100776.06
2022-08-23T08:54:08.950Z,100771.34
2022-08-23T08:57:01.547Z,100766.28
2022-08-23T09:00:02.038Z,100765.94
2022-08-23T09:02:50.445Z,100768.22
2022-08-23T09:05:42.743Z,100760.13
2022-08-23T09:08:57.696Z,100773.75
2022-08-23T09:11:53.947Z,100768.75
2022-08-23T09:14:55.112Z,100768.25
2022-08-23T09:17:53.119Z,100764.41
2022-08-23T09:20:41.042Z,100769.44
2022-08-23T09:23:34.420Z,100770.25
2022-08-23T09:26:23.240Z,100765.63
2022-08-23T09:29:23.001Z,100770.06
2022-08-23T09:32:36.471Z,100784.56
2022-08-23T09:35:26.887Z,100772.66
2022-08-23T09:38:21.086Z,100774.38
2022-08-23T09:41:22.626Z,100772.69
2022-08-23T09:44:16.569Z,100769.50
2022-08-23T09:47:16.874Z,100766.94
2022-08-23T09:50:18.243Z,100771.28
2022-08-23T09:53:23.283Z,100767.47
2022-08-23T09:56:14.194Z,100771.44
2022-08-23T09:59:01.754Z,100766.31
2022-08-23T10:02:02.141Z,100764.78
2022-08-23T10:05:07.243Z,100762.06
2022-08-23T10:08:02.247Z,100769.09
2022-08-23T10:10:55.031Z,100769.81
2022-08-23T10:13:51.670Z,100770.94
2022-08-23T10:16:41.878Z,100768.09
2022-08-23T10:19:30.922Z,100770.06
2022-08-23T10:22:20.923Z,100771.66
2022-08-23T10:25:54.822Z,100772.19
2022-08-23T10:29:15.403Z,100772.78
2022-08-23T10:32:10.035Z,100771.72
2022-08-23T10:35:51.866Z,100758.53
2022-08-23T10:38:45.194Z,100760.78
2022-08-23T10:41:58.955Z,100760.84
2022-08-23T10:45:14.887Z,100769.59
2022-08-23T10:48:09.930Z,100768.00
2022-08-23T10:51:07.564Z,100780.84
2022-08-23T10:54:12.660Z,100780.31
2022-08-23T10:57:00.086Z,100778.88
2022-08-23T10:59:47.350Z,100777.31
2022-08-23T11:02:45.601Z,100770.53
2022-08-23T11:05:41.246Z,100780.53
2022-08-23T11:08:38.348Z,100783.22
2022-08-23T11:11:49.352Z,100781.44
2022-08-23T11:14:41.980Z,100788.34
2022-08-23T11:17:38.603Z,100784.97
2022-08-23T11:20:48.984Z,100774.31
2022-08-23T11:23:40.783Z,100786.84
2022-08-23T11:26:36.467Z,100784.53
2022-08-23T11:29:25.063Z,100778.81
2022-08-23T11:32:38.121Z,100778.63
2022-08-23T11:35:53.479Z,100770.00
2022-08-23T11:38:43.603Z,100771.31
2022-08-23T11:41:53.255Z,100778.09
2022-08-23T11:44:46.917Z,100772.91
2022-08-23T11:47:44.562Z,100767.97
2022-08-23T11:50:39.614Z,100766.47
2022-08-23T11:53:42.220Z,100752.63
2022-08-23T11:56:52.583Z,100765.41
2022-08-23T11:59:59.845Z,100759.69
2022-08-23T12:02:56.303Z,100764.00
2022-08-23T12:06:07.385Z,100764.63
2022-08-23T12:09:01.846Z,100760.97
2022-08-23T12:11:56.614Z,100762.78
2022-08-23T12:14:41.979Z,100755.75
2022-08-23T12:17:28.595Z,100762.88
2022-08-23T12:20:26.860Z,100766.97
2022-08-23T12:23:16.713Z,100761.91
2022-08-23T12:26:26.681Z,100768.78
2022-08-23T12:29:51.113Z,100768.22
2022-08-23T12:32:55.123Z,100775.41
2022-08-23T12:36:02.841Z,100773.91
2022-08-23T12:39:03.283Z,100775.69
2022-08-23T12:42:11.334Z,100777.91
2022-08-23T12:45:20.307Z,100776.69
2022-08-23T12:48:10.426Z,100777.34
2022-08-23T12:51:10.724Z,100767.09
2022-08-23T12:53:56.662Z,100775.50
2022-08-23T12:56:47.852Z,100780.34
2022-08-23T12:59:58.634Z,100776.16
2022-08-23T13:03:37.128Z,100780.91
2022-08-23T13:06:28.437Z,100784.50
2022-08-23T13:09:17.228Z,100777.91
2022-08-23T13:12:04.261Z,100773.53
2022-08-23T13:14:52.608Z,100775.34
2022-08-23T13:17:42.421Z,100777.28
2022-08-23T13:20:28.552Z,100779.03
2022-08-23T13:23:17.480Z,100778.22
2022-08-23T13:26:37.303Z,100775.47
2022-08-23T13:29:24.224Z,100791.16
2022-08-23T13:32:27.073Z,100786.22
2022-08-23T13:35:47.153Z,100787.53
2022-08-23T13:38:35.203Z,100786.84
2022-08-23T13:41:38.851Z,100792.84
2022-08-23T13:44:25.964Z,100794.34
2022-08-23T13:47:23.078Z,100787.34
2022-08-23T13:50:16.127Z,100785.91
2022-08-23T13:53:14.445Z,100775.88
2022-08-23T13:56:00.883Z,100781.72
2022-08-23T13:58:56.432Z,100786.47
2022-08-23T14:01:42.075Z,100782.63
2022-08-23T14:04:27.730Z,100783.22
2022-08-23T14:07:15.094Z,100780.25
2022-08-23T14:10:01.112Z,100783.72
2022-08-23T14:12:48.620Z,100783.13
2022-08-23T14:19:16.226Z,100787.56
2022-08-23T14:21:46.874Z,100773.19
2022-08-23T14:24:32.268Z,100776.41
2022-08-23T14:27:17.970Z,100769.47
2022-08-23T14:30:05.755Z,100778.81
2022-08-23T14:32:50.989Z,100768.06
2022-08-23T14:35:36.503Z,100782.38
2022-08-23T14:38:22.098Z,100779.72
2022-08-23T14:41:10.645Z,100770.72
2022-08-23T14:43:55.989Z,100767.13
2022-08-23T14:46:41.531Z,100774.19
2022-08-23T14:49:27.393Z,100782.53
2022-08-23T14:52:15.241Z,100778.72
2022-08-23T14:55:00.707Z,100782.75
2022-08-23T14:57:46.331Z,100781.22
2022-08-23T15:00:35.388Z,100769.50
2022-08-23T15:03:25.526Z,100769.88
2022-08-23T15:06:13.295Z,100772.56
2022-08-23T15:08:58.982Z,100768.41
2022-08-23T15:14:52.394Z,100758.00
2022-08-23T15:17:45.138Z,100755.97
2022-08-23T15:20:34.117Z,100759.91
2022-08-23T15:23:20.380Z,100755.13
2022-08-23T15:26:06.141Z,100757.31
2022-08-23T15:28:52.127Z,100758.63
2022-08-23T15:31:37.857Z,100755.91
2022-08-23T15:34:23.243Z,100753.34
2022-08-23T15:37:08.780Z,100747.25
2022-08-23T15:39:54.578Z,100749.03
2022-08-23T15:42:40.069Z,100737.53
2022-08-23T15:45:25.857Z,100738.78
2022-08-23T15:48:35.595Z,100750.16
2022-08-23T15:51:21.353Z,100733.91
2022-08-23T15:54:07.122Z,100737.81
2022-08-23T15:56:53.422Z,100731.38
2022-08-23T15:59:39.147Z,100735.53
2022-08-23T16:02:25.666Z,100733.41
2022-08-23T16:05:12.254Z,100740.09
2022-08-23T16:07:58.100Z,100730.34
2022-08-23T16:10:46.186Z,100736.50
2022-08-23T16:13:31.897Z,100735.09
2022-08-23T16:16:31.007Z,100732.75
2022-08-23T16:19:16.742Z,100730.78
2022-08-23T16:22:03.160Z,100732.13
2022-08-23T16:24:48.369Z,100729.59
2022-08-23T16:27:35.037Z,100723.78
2022-08-23T16:30:20.572Z,100722.47
2022-08-23T16:33:06.280Z,100714.22
2022-08-23T16:35:51.666Z,100721.00
2022-08-23T16:38:38.122Z,100718.47
2022-08-23T16:41:23.768Z,100712.41
2022-08-23T16:44:09.379Z,100718.09
2022-08-23T16:46:55.531Z,100715.81
2022-08-23T16:49:42.248Z,100722.66
2022-08-23T16:52:34.373Z,100720.66
2022-08-23T16:55:20.781Z,100720.88
2022-08-23T16:58:07.943Z,100719.28
2022-08-23T17:00:53.513Z,100730.00
2022-08-23T17:03:39.834Z,100725.53
2022-08-23T17:06:25.666Z,100731.56
2022-08-23T17:09:12.231Z,100726.97
2022-08-23T17:12:01.172Z,100724.09
2022-08-23T17:14:49.064Z,100736.44
2022-08-23T17:17:34.425Z,100727.72
2022-08-23T17:20:23.530Z,100731.44
2022-08-23T17:23:11.514Z,100735.41
2022-08-23T17:25:57.106Z,100740.81
2022-08-23T17:28:43.286Z,100733.84
2022-08-23T17:31:28.895Z,100735.75
2022-08-23T17:34:14.834Z,100726.88
2022-08-23T17:37:00.699Z,100731.28
2022-08-23T17:39:47.096Z,100729.72
2022-08-23T17:42:32.815Z,100728.31
2022-08-23T17:45:18.902Z,100725.31
2022-08-23T17:48:04.430Z,100719.84
2022-08-23T17:50:50.210Z,100711.31
2022-08-23T17:53:35.651Z,100725.50
2022-08-23T17:56:21.205Z,100722.41
2022-08-23T17:59:06.662Z,100728.44
2022-08-23T18:01:53.073Z,100737.19
2022-08-23T18:04:39.126Z,100734.59
2022-08-23T18:07:24.919Z,100723.88
2022-08-23T18:10:12.412Z,100725.25
2022-08-23T18:12:58.860Z,100731.72
2022-08-23T18:15:48.004Z,100740.44
2022-08-23T18:18:33.799Z,100742.53
2022-08-23T18:21:19.711Z,100738.94
2022-08-23T18:24:06.919Z,100729.44
2022-08-23T18:27:21.768Z,100728.75
2022-08-23T18:30:10.275Z,100741.16
2022-08-23T18:32:56.399Z,100740.09
2022-08-23T18:35:42.834Z,100743.03
2022-08-23T18:38:28.145Z,100748.44
2022-08-23T18:41:14.498Z,100752.94
2022-08-23T18:44:00.343Z,100751.19
2022-08-23T18:46:51.250Z,100751.44
2022-08-23T18:49:38.897Z,100757.81
2022-08-23T18:52:30.975Z,100752.09
2022-08-23T18:55:17.732Z,100751.53
2022-08-23T18:58:03.892Z,100740.16
2022-08-23T19:00:50.650Z,100750.16
2022-08-23T19:03:36.892Z,100743.34
2022-08-23T19:06:23.595Z,100733.78
2022-08-23T19:09:12.933Z,100740.97
2022-08-23T19:12:00.693Z,100743.03
2022-08-23T19:14:46.544Z,100758.31
2022-08-23T19:17:32.010Z,100761.97
2022-08-23T19:20:18.279Z,100773.66
2022-08-23T19:23:04.453Z,100774.84
2022-08-23T19:25:50.076Z,100764.66
2022-08-23T19:28:35.798Z,100749.09
2022-08-23T19:31:21.643Z,100760.00
2022-08-23T19:34:07.120Z,100760.19
2022-08-23T19:37:00.718Z,100759.53
2022-08-23T19:39:48.563Z,100773.28
2022-08-23T19:42:37.159Z,100764.91
2022-08-23T19:45:22.567Z,100762.63
2022-08-23T19:48:07.998Z,100764.00
2022-08-23T19:50:53.730Z,100767.31
2022-08-23T19:53:40.258Z,100764.66
2022-08-23T19:56:26.238Z,100772.41
2022-08-23T19:59:20.436Z,100780.75
2022-08-23T20:02:08.881Z,100776.44
2022-08-23T20:04:54.413Z,100777.31
2022-08-23T20:07:40.076Z,100784.38
2022-08-23T20:10:26.168Z,100778.22
2022-08-23T20:13:12.321Z,100783.56
2022-08-23T20:15:57.921Z,100777.44
2022-08-23T20:18:44.506Z,100779.19
2022-08-23T20:21:30.158Z,100787.25
2022-08-23T20:24:16.476Z,100786.50
2022-08-23T20:27:02.202Z,100784.72
2022-08-23T20:29:49.465Z,100777.75
2022-08-23T20:32:35.887Z,100775.22
2022-08-23T20:35:21.304Z,100774.31
2022-08-23T20:38:06.655Z,100772.59
2022-08-23T20:40:53.493Z,100772.59
2022-08-23T20:43:40.217Z,100776.25
2022-08-23T20:46:26.751Z,100786.84
2022-08-23T20:49:12.306Z,100780.00
2022-08-23T20:51:57.967Z,100787.13
2022-08-23T20:54:45.046Z,100782.75
2022-08-23T20:57:37.315Z,100787.25
2022-08-23T21:00:24.180Z,100780.22
2022-08-23T21:03:10.084Z,100788.16
2022-08-23T21:06:04.463Z,100791.78
2022-08-23T21:08:53.505Z,100785.81
2022-08-23T21:11:39.741Z,100783.25
2022-08-23T21:14:25.487Z,100778.88
2022-08-23T21:17:10.948Z,100786.06
2022-08-23T21:19:56.741Z,100770.41
2022-08-23T21:22:42.177Z,100776.78
2022-08-23T21:25:27.555Z,100781.31
2022-08-23T21:28:12.974Z,100778.94
2022-08-23T21:31:16.177Z,100773.91
2022-08-23T21:34:02.288Z,100773.28
2022-08-23T21:36:47.968Z,100771.63
2022-08-23T21:39:33.452Z,100766.50
2022-08-23T21:42:23.454Z,100770.16
2022-08-23T21:45:10.059Z,100764.97
2022-08-23T21:47:55.832Z,100764.16
2022-08-23T21:50:41.601Z,100766.09
2022-08-23T21:53:27.398Z,100767.00
2022-08-23T21:56:13.607Z,100763.47
2022-08-23T21:59:00.074Z,100755.81
2022-08-23T22:01:46.637Z,100754.19
2022-08-23T22:04:32.864Z,100754.25
2022-08-23T22:07:18.460Z,100751.72
2022-08-23T22:10:09.655Z,100747.41
2022-08-23T22:12:55.913Z,100750.97
2022-08-23T22:15:41.649Z,100749.28
2022-08-23T22:18:28.946Z,100744.88
2022-08-23T22:21:14.278Z,100735.25
2022-08-23T22:24:00.163Z,100732.66
2022-08-23T22:26:46.520Z,100728.38
2022-08-23T22:29:32.120Z,100737.22
2022-08-23T22:32:17.530Z,100729.41
2022-08-23T22:35:03.586Z,100730.25
2022-08-23T22:38:10.257Z,100723.31
2022-08-23T22:40:54.721Z,100718.06
2022-08-23T22:43:40.033Z,100733.91
2022-08-23T22:46:27.470Z,100724.13
2022-08-23T22:49:12.714Z,100724.25
2022-08-23T22:51:59.594Z,100726.94
2022-08-23T22:54:45.526Z,100708.56
2022-08-23T22:57:31.707Z,100713.16
2022-08-23T23:00:17.318Z,100707.22
2022-08-23T23:03:02.775Z,100709.06
2022-08-23T23:05:49.492Z,100710.09
2022-08-23T23:08:35.301Z,100705.84
2022-08-23T23:11:27.690Z,100697.19
2022-08-23T23:14:15.959Z,100702.66
2022-08-23T23:17:01.299Z,100703.72
2022-08-23T23:20:05.729Z,100709.94
2022-08-23T23:22:51.983Z,100700.44
2022-08-23T23:25:37.602Z,100700.56
2022-08-23T23:28:23.568Z,100703.25
2022-08-23T23:31:08.933Z,100699.69
2022-08-23T23:33:54.145Z,100697.16
2022-08-23T23:36:40.443Z,100705.13
2022-08-23T23:39:28.904Z,100708.72
2022-08-23T23:42:14.610Z,100706.28
2022-08-23T23:45:00.969Z,100715.63
2022-08-23T23:47:47.062Z,100717.91
2022-08-23T23:50:32.482Z,100729.59
2022-08-23T23:53:17.836Z,100732.69
2022-08-23T23:56:06.031Z,100730.50
2022-08-23T23:58:52.891Z,100733.53
